createdAt,value
2018-12-06T00:00:40.015Z,100325.78
2018-12-06T00:04:46.199Z,100313.98
2018-12-06T00:08:52.191Z,100307.42
2018-12-06T00:12:57.815Z,100303.13
2018-12-06T00:17:03.767Z,100297.23
2018-12-06T00:21:09.804Z,100290.08
2018-12-06T00:25:15.748Z,100286.80
2018-12-06T00:29:21.623Z,100282.13
2018-12-06T00:33:27.634Z,100282.78
2018-12-06T00:37:33.631Z,100278.64
2018-12-06T00:41:40.934Z,100267.33
2018-12-06T00:45:47.681Z,100275.37
2018-12-06T00:49:55.753Z,100287.56
2018-12-06T00:54:02.622Z,100283.38
2018-12-06T00:58:12.987Z,100289.53
2018-12-06T01:02:19.140Z,100291.05
2018-12-06T01:06:25.157Z,100296.48
2018-12-06T01:10:31.463Z,100295.92
2018-12-06T01:14:41.774Z,100296.02
2018-12-06T01:18:47.816Z,100301.00
2018-12-06T01:22:53.999Z,100290.15
2018-12-06T01:26:59.837Z,100274.30
2018-12-06T01:31:06.128Z,100277.48
2018-12-06T01:35:12.286Z,100280.49
2018-12-06T01:39:18.720Z,100286.20
2018-12-06T01:43:25.673Z,100278.30
2018-12-06T01:47:32.634Z,100263.16
2018-12-06T01:51:38.607Z,100263.63
2018-12-06T01:55:44.785Z,100265.48
2018-12-06T01:59:51.037Z,100261.95
2018-12-06T02:03:57.768Z,100253.34
2018-12-06T02:08:03.803Z,100262.77
2018-12-06T02:12:09.696Z,100261.75
2018-12-06T02:16:15.866Z,100254.74
2018-12-06T02:20:21.528Z,100247.14
2018-12-06T02:24:27.360Z,100252.59
2018-12-06T02:28:33.960Z,100255.04
2018-12-06T02:32:41.874Z,100273.59
2018-12-06T02:36:47.844Z,100275.06
2018-12-06T02:40:53.721Z,100230.13
2018-12-06T02:45:06.230Z,100239.55
2018-12-06T02:49:12.192Z,100237.03
2018-12-06T02:53:18.094Z,100238.05
2018-12-06T02:57:24.230Z,100235.23
2018-12-06T03:01:30.311Z,100228.42
2018-12-06T03:05:36.517Z,100234.34
2018-12-06T03:09:46.249Z,100236.69
2018-12-06T03:13:52.496Z,100236.47
2018-12-06T03:17:58.403Z,100228.51
2018-12-06T03:22:04.565Z,100229.45
2018-12-06T03:26:10.816Z,100228.66
2018-12-06T03:30:16.869Z,100215.47
2018-12-06T03:34:23.252Z,100210.16
2018-12-06T03:38:29.752Z,100207.73
2018-12-06T03:42:35.666Z,100197.52
2018-12-06T03:46:41.730Z,100203.61
2018-12-06T03:50:47.642Z,100203.51
2018-12-06T03:54:54.620Z,100198.49
2018-12-06T03:59:00.573Z,100204.42
2018-12-06T04:03:06.658Z,100204.73
2018-12-06T04:07:12.477Z,100202.23
2018-12-06T04:11:18.179Z,100197.86
2018-12-06T04:15:24.154Z,100210.48
2018-12-06T04:19:30.299Z,100201.80
2018-12-06T04:23:36.296Z,100207.08
2018-12-06T04:27:42.293Z,100213.09
2018-12-06T04:31:48.332Z,100200.39
2018-12-06T04:35:54.233Z,100212.41
2018-12-06T04:40:00.316Z,100201.07
2018-12-06T04:44:06.576Z,100218.45
2018-12-06T04:48:21.498Z,100224.27
2018-12-06T04:52:21.611Z,100224.63
2018-12-06T04:56:27.691Z,100217.63
2018-12-06T05:00:33.833Z,100214.52
2018-12-06T05:04:41.393Z,100217.29
2018-12-06T05:08:48.652Z,100217.66
2018-12-06T05:12:54.432Z,100205.79
2018-12-06T05:17:01.049Z,100206.56
2018-12-06T05:21:07.255Z,100208.80
2018-12-06T05:25:13.667Z,100210.66
2018-12-06T05:29:20.219Z,100207.67
2018-12-06T05:33:27.348Z,100214.41
2018-12-06T05:37:33.453Z,100200.03
2018-12-06T05:41:39.519Z,100201.45
2018-12-06T05:45:46.633Z,100203.08
2018-12-06T05:49:52.831Z,100206.06
2018-12-06T05:53:59.166Z,100212.68
2018-12-06T05:58:06.063Z,100215.98
2018-12-06T06:02:11.968Z,100220.91
2018-12-06T06:06:19.190Z,100237.80
2018-12-06T06:10:25.398Z,100233.48
2018-12-06T06:14:31.434Z,100226.78
2018-12-06T06:18:38.436Z,100236.49
2018-12-06T06:22:44.601Z,100246.60
2018-12-06T06:26:50.944Z,100250.37
2018-12-06T06:30:57.008Z,100256.45
2018-12-06T06:35:02.999Z,100257.14
2018-12-06T06:39:10.336Z,100264.63
2018-12-06T06:43:17.803Z,100270.56
2018-12-06T06:47:24.014Z,100267.25
2018-12-06T06:51:30.023Z,100270.05
2018-12-06T06:55:35.980Z,100272.66
2018-12-06T06:59:42.360Z,100295.13
2018-12-06T07:03:48.601Z,100309.20
2018-12-06T07:07:54.794Z,100321.78
2018-12-06T07:12:00.880Z,100331.02
2018-12-06T07:16:06.931Z,100335.71
2018-12-06T07:20:13.140Z,100337.09
2018-12-06T07:24:19.594Z,100337.89
2018-12-06T07:28:25.851Z,100344.52
2018-12-06T07:32:31.789Z,100334.02
2018-12-06T07:36:38.699Z,100336.36
2018-12-06T07:40:44.780Z,100320.09
2018-12-06T07:44:50.952Z,100329.81
2018-12-06T07:48:56.933Z,100336.36
2018-12-06T07:53:03.004Z,100353.97
2018-12-06T07:57:09.046Z,100353.19
2018-12-06T08:01:14.739Z,100354.11
2018-12-06T08:05:20.391Z,100354.44
2018-12-06T08:09:25.980Z,100358.48
2018-12-06T08:13:31.592Z,100361.39
2018-12-06T08:17:37.361Z,100368.14
2018-12-06T08:21:43.145Z,100380.86
2018-12-06T08:25:49.180Z,100384.02
2018-12-06T08:29:54.991Z,100372.22
2018-12-06T08:34:06.064Z,100362.20
2018-12-06T08:38:08.245Z,100390.41
2018-12-06T08:42:13.919Z,100396.45
2018-12-06T08:46:19.858Z,100400.17
2018-12-06T08:50:25.388Z,100389.52
2018-12-06T08:54:30.960Z,100390.90
2018-12-06T08:58:36.525Z,100396.15
2018-12-06T09:02:43.102Z,100391.59
2018-12-06T09:06:48.812Z,100403.65
2018-12-06T09:10:55.568Z,100394.79
2018-12-06T09:15:01.317Z,100392.16
2018-12-06T09:19:07.092Z,100388.62
2018-12-06T09:23:13.126Z,100399.16
2018-12-06T09:27:19.634Z,100399.48
2018-12-06T09:31:25.264Z,100390.97
2018-12-06T09:35:31.081Z,100385.49
2018-12-06T09:39:37.047Z,100392.75
2018-12-06T09:43:42.733Z,100391.15
2018-12-06T09:47:48.435Z,100402.55
2018-12-06T09:51:54.182Z,100402.24
2018-12-06T09:55:59.914Z,100404.19
2018-12-06T10:00:08.147Z,100417.81
2018-12-06T10:04:14.229Z,100411.02
2018-12-06T10:08:23.435Z,100421.03
2018-12-06T10:12:32.713Z,100406.25
2018-12-06T10:16:41.859Z,100403.75
2018-12-06T10:20:52.540Z,100411.34
2018-12-06T10:25:00.541Z,100418.81
2018-12-06T10:29:09.682Z,100424.23
2018-12-06T10:33:22.299Z,100422.34
2018-12-06T10:37:30.286Z,100422.34
2018-12-06T10:41:36.465Z,100417.83
2018-12-06T10:45:44.834Z,100424.59
2018-12-06T10:49:50.930Z,100429.61
2018-12-06T10:54:03.902Z,100415.15
2018-12-06T10:58:13.241Z,100411.98
2018-12-06T11:02:24.506Z,100411.05
2018-12-06T11:06:31.239Z,100409.40
2018-12-06T11:10:37.157Z,100397.23
2018-12-06T11:14:43.794Z,100383.61
2018-12-06T11:18:49.617Z,100382.80
2018-12-06T11:22:55.289Z,100360.64
2018-12-06T11:27:01.184Z,100352.20
2018-12-06T11:31:09.081Z,100330.17
2018-12-06T11:35:17.372Z,100338.66
2018-12-06T11:39:23.818Z,100352.69
2018-12-06T11:43:29.739Z,100376.41
2018-12-06T11:47:35.624Z,100369.82
2018-12-06T11:51:42.884Z,100374.06
2018-12-06T11:55:48.679Z,100377.55
2018-12-06T12:00:01.839Z,100375.00
2018-12-06T12:04:07.938Z,100380.68
2018-12-06T12:08:15.659Z,100378.19
2018-12-06T12:12:21.852Z,100379.64
2018-12-06T12:16:31.390Z,100365.34
2018-12-06T12:20:37.377Z,100369.63
2018-12-06T12:24:43.235Z,100373.98
2018-12-06T12:28:49.341Z,100374.41
2018-12-06T12:32:55.059Z,100374.97
2018-12-06T12:37:00.913Z,100368.86
2018-12-06T12:41:06.682Z,100365.49
2018-12-06T12:45:12.698Z,100375.92
2018-12-06T12:49:19.026Z,100365.13
2018-12-06T12:53:25.371Z,100372.27
2018-12-06T12:57:31.625Z,100385.09
2018-12-06T13:01:38.172Z,100385.22
2018-12-06T13:05:43.834Z,100387.75
2018-12-06T13:09:49.821Z,100389.52
2018-12-06T13:13:55.817Z,100390.59
2018-12-06T13:18:02.414Z,100389.50
2018-12-06T13:22:08.557Z,100393.22
2018-12-06T13:26:14.495Z,100390.86
2018-12-06T13:30:20.493Z,100399.47
2018-12-06T13:34:27.308Z,100404.97
2018-12-06T13:38:33.029Z,100390.45
2018-12-06T13:42:38.781Z,100376.44
2018-12-06T13:46:44.539Z,100379.83
2018-12-06T13:50:50.397Z,100379.11
2018-12-06T13:54:56.159Z,100374.18
2018-12-06T13:59:01.932Z,100385.59
2018-12-06T14:03:08.804Z,100389.70
2018-12-06T14:07:14.812Z,100393.44
2018-12-06T14:11:20.738Z,100395.97
2018-12-06T14:15:26.988Z,100407.25
2018-12-06T14:19:32.788Z,100421.31
2018-12-06T14:23:38.651Z,100411.56
2018-12-06T14:27:44.230Z,100409.05
2018-12-06T14:31:50.268Z,100408.80
2018-12-06T14:35:55.911Z,100408.45
2018-12-06T14:40:02.353Z,100410.63
2018-12-06T14:44:08.101Z,100410.72
2018-12-06T14:48:21.006Z,100414.09
2018-12-06T14:52:30.645Z,100423.84
2018-12-06T14:56:38.034Z,100418.78
2018-12-06T15:00:47.823Z,100424.18
2018-12-06T15:04:55.084Z,100420.46
2018-12-06T15:09:01.573Z,100428.39
2018-12-06T15:13:12.758Z,100430.77
2018-12-06T15:17:18.840Z,100436.79
2018-12-06T15:21:27.490Z,100436.47
2018-12-06T15:25:42.004Z,100430.62
2018-12-06T15:29:58.131Z,100428.95
2018-12-06T15:34:05.848Z,100420.08
2018-12-06T15:38:15.094Z,100418.89
2018-12-06T15:42:29.385Z,100412.42
2018-12-06T15:46:35.932Z,100404.71
2018-12-06T15:50:43.089Z,100404.23
2018-12-06T15:54:51.523Z,100411.31
2018-12-06T15:59:00.703Z,100413.36
2018-12-06T16:03:11.681Z,100413.02
2018-12-06T16:07:19.045Z,100419.97
2018-12-06T16:11:28.392Z,100409.53
2018-12-06T16:15:57.207Z,100416.52
2018-12-06T16:20:04.333Z,100416.98
2018-12-06T16:24:13.980Z,100416.73
2018-12-06T16:28:24.089Z,100420.60
2018-12-06T16:32:31.829Z,100419.75
2018-12-06T16:36:46.261Z,100428.02
2018-12-06T16:41:07.328Z,100423.21
2018-12-06T16:45:15.655Z,100428.02
2018-12-06T16:49:25.896Z,100439.66
2018-12-06T16:53:33.864Z,100435.11
2018-12-06T16:57:46.464Z,100433.89
2018-12-06T17:01:54.380Z,100433.69
2018-12-06T17:06:02.902Z,100433.78
2018-12-06T17:10:16.981Z,100434.28
2018-12-06T17:14:25.302Z,100440.38
2018-12-06T17:18:36.169Z,100437.14
2018-12-06T17:22:49.369Z,100438.11
2018-12-06T17:26:55.935Z,100436.41
2018-12-06T17:31:05.066Z,100434.02
2018-12-06T17:35:18.303Z,100429.33
2018-12-06T17:39:30.180Z,100422.36
2018-12-06T17:43:40.175Z,100419.22
2018-12-06T17:47:51.083Z,100424.88
2018-12-06T17:52:04.836Z,100429.08
2018-12-06T17:56:20.159Z,100429.92
2018-12-06T18:00:32.824Z,100425.61
2018-12-06T18:04:46.970Z,100431.12
2018-12-06T18:08:56.483Z,100435.46
2018-12-06T18:13:02.780Z,100427.41
2018-12-06T18:17:24.128Z,100422.97
2018-12-06T18:21:34.630Z,100427.53
2018-12-06T18:25:45.905Z,100431.98
2018-12-06T18:29:59.455Z,100411.67
2018-12-06T18:34:10.440Z,100403.14
2018-12-06T18:38:19.801Z,100396.74
2018-12-06T18:42:29.952Z,100408.05
2018-12-06T18:46:40.566Z,100399.98
2018-12-06T18:50:47.585Z,100388.20
2018-12-06T18:54:53.745Z,100383.02
2018-12-06T18:58:59.978Z,100377.49
2018-12-06T19:03:07.477Z,100375.94
2018-12-06T19:07:13.684Z,100369.92
2018-12-06T19:11:20.763Z,100372.07
2018-12-06T19:15:28.400Z,100368.05
2018-12-06T19:19:39.299Z,100354.83
2018-12-06T19:23:49.961Z,100361.92
2018-12-06T19:27:56.314Z,100362.64
2018-12-06T19:32:03.449Z,100354.78
2018-12-06T19:36:09.524Z,100356.98
2018-12-06T19:40:15.889Z,100358.30
2018-12-06T19:44:22.215Z,100352.65
2018-12-06T19:48:28.593Z,100348.17
2018-12-06T19:52:34.983Z,100351.66
2018-12-06T19:56:41.842Z,100350.72
2018-12-06T20:00:47.884Z,100353.23
2018-12-06T20:11:23.325Z,100358.73
2018-12-06T20:15:29.936Z,100357.20
2018-12-06T20:19:36.188Z,100359.31
2018-12-06T20:23:43.203Z,100348.50
2018-12-06T20:27:50.543Z,100350.03
2018-12-06T20:31:56.628Z,100348.94
2018-12-06T20:36:03.166Z,100344.61
2018-12-06T20:40:09.753Z,100336.88
2018-12-06T20:44:15.889Z,100338.06
2018-12-06T20:48:22.827Z,100326.05
2018-12-06T20:52:29.079Z,100316.14
2018-12-06T20:56:36.019Z,100328.42
2018-12-06T21:00:42.341Z,100337.89
2018-12-06T21:04:50.488Z,100343.83
2018-12-06T21:08:57.539Z,100347.88
2018-12-06T21:13:04.980Z,100350.52
2018-12-06T21:17:12.050Z,100346.66
2018-12-06T21:21:19.159Z,100345.43
2018-12-06T21:25:26.749Z,100341.12
2018-12-06T21:29:32.953Z,100329.78
2018-12-06T21:33:39.505Z,100329.44
2018-12-06T21:37:47.527Z,100308.88
2018-12-06T21:41:54.807Z,100309.59
2018-12-06T21:46:01.244Z,100308.97
2018-12-06T21:50:15.139Z,100316.03
2018-12-06T21:58:45.389Z,100313.05
2018-12-06T22:02:54.126Z,100313.05
2018-12-06T22:07:03.135Z,100312.44
2018-12-06T22:11:09.700Z,100306.05
2018-12-06T22:15:17.980Z,100310.53
2018-12-06T22:19:25.562Z,100314.00
2018-12-06T22:23:37.850Z,100311.95
2018-12-06T22:27:46.324Z,100313.14
2018-12-06T22:31:56.019Z,100315.92
2018-12-06T22:36:03.638Z,100311.69
2018-12-06T22:40:10.770Z,100305.67
2018-12-06T22:44:18.744Z,100302.55
2018-12-06T22:48:25.688Z,100304.48
2018-12-06T22:52:34.231Z,100307.84
2018-12-06T22:56:46.881Z,100302.93
2018-12-06T23:01:04.126Z,100295.84
2018-12-06T23:05:14.599Z,100298.58
2018-12-06T23:09:23.932Z,100290.88
2018-12-06T23:13:30.745Z,100290.88
2018-12-06T23:17:42.396Z,100288.23
2018-12-06T23:21:50.526Z,100293.52
2018-12-06T23:25:58.704Z,100287.38
2018-12-06T23:30:06.100Z,100296.06
2018-12-06T23:34:15.107Z,100294.19
2018-12-06T23:38:20.924Z,100300.24
2018-12-06T23:42:27.024Z,100295.28
2018-12-06T23:46:32.823Z,100294.91
2018-12-06T23:50:39.081Z,100288.52
2018-12-06T23:54:45.264Z,100274.47
2018-12-06T23:58:51.320Z,100270.02
